createdAt,value
2019-03-12T14:25:03.916Z,93920.08
2019-03-12T14:27:32.536Z,93922.27
2019-03-12T14:30:01.082Z,93916.66
2019-03-12T14:32:29.737Z,93913.77
2019-03-12T14:34:58.361Z,93916.45
2019-03-12T14:37:26.963Z,93909.27
2019-03-12T14:39:55.648Z,93921.58
2019-03-12T14:42:24.268Z,93924.77
2019-03-12T14:44:52.890Z,93926.86
2019-03-12T14:47:21.545Z,93928.50
2019-03-12T14:49:50.174Z,93930.97
2019-03-12T14:52:18.902Z,93930.52
2019-03-12T14:54:47.555Z,93933.23
2019-03-12T14:57:16.257Z,93930.99
2019-03-12T14:59:44.887Z,93931.69
2019-03-12T15:02:13.646Z,93934.20
2019-03-12T15:04:42.272Z,93946.66
2019-03-12T15:07:10.890Z,93949.45
2019-03-12T15:09:39.560Z,93939.95
2019-03-12T15:12:11.444Z,93946.97
2019-03-12T15:14:38.528Z,93941.83
2019-03-12T15:17:07.178Z,93946.56
2019-03-12T15:19:35.803Z,93939.69
2019-03-12T15:22:04.420Z,93944.69
2019-03-12T15:24:35.962Z,93940.52
2019-03-12T15:27:03.419Z,93949.84
2019-03-12T15:29:32.078Z,93951.19
2019-03-12T15:32:04.360Z,93945.44
2019-03-12T15:34:31.053Z,93944.70
2019-03-12T15:36:59.751Z,93951.38
2019-03-12T15:39:28.430Z,93951.34
2019-03-12T15:41:57.056Z,93950.21
2019-03-12T15:44:25.674Z,93950.55
2019-03-12T15:46:54.333Z,93947.97
2019-03-12T15:49:22.956Z,93947.95
2019-03-12T15:51:51.587Z,93947.25
2019-03-12T15:54:20.397Z,93948.25
2019-03-12T15:56:49.184Z,93948.66
2019-03-12T15:59:17.816Z,93949.47
2019-03-12T16:01:46.484Z,93949.36
2019-03-12T16:04:15.030Z,93959.48
2019-03-12T16:06:43.659Z,93960.11
2019-03-12T16:09:12.316Z,93967.46
2019-03-12T16:11:40.952Z,93966.69
2019-03-12T16:14:09.571Z,93975.10
2019-03-12T16:16:38.248Z,93983.41
2019-03-12T16:19:06.888Z,93979.23
2019-03-12T16:21:35.514Z,93989.42
2019-03-12T16:24:04.378Z,93993.48
2019-03-12T16:26:32.999Z,93995.03
2019-03-12T16:29:01.625Z,94003.03
2019-03-12T16:31:30.295Z,94008.98
2019-03-12T16:33:58.905Z,94005.63
2019-03-12T16:36:27.560Z,93999.70
2019-03-12T16:38:56.216Z,94008.41
2019-03-12T16:41:24.832Z,94016.92
2019-03-12T16:43:53.456Z,94021.20
2019-03-12T16:46:22.114Z,94027.48
2019-03-12T16:48:50.835Z,94029.77
2019-03-12T16:51:19.449Z,94031.00
2019-03-12T16:53:48.125Z,94040.58
2019-03-12T16:56:16.752Z,94050.26
2019-03-12T16:58:45.317Z,94042.95
2019-03-12T17:01:13.991Z,94048.85
2019-03-12T17:03:42.635Z,94050.83
2019-03-12T17:06:11.262Z,94052.30
2019-03-12T17:08:39.934Z,94055.02
2019-03-12T17:11:08.565Z,94061.84
2019-03-12T17:13:37.187Z,94068.59
2019-03-12T17:16:05.847Z,94069.70
2019-03-12T17:18:34.477Z,94073.70
2019-03-12T17:21:03.099Z,94080.02
2019-03-12T17:23:31.769Z,94083.06
2019-03-12T17:26:00.396Z,94090.41
2019-03-12T17:28:29.021Z,94092.09
2019-03-12T17:30:59.142Z,94094.86
2019-03-12T17:33:27.771Z,94094.86
2019-03-12T17:35:56.395Z,94096.25
2019-03-12T17:38:25.155Z,94093.94
2019-03-12T17:40:53.849Z,94098.19
2019-03-12T17:43:22.485Z,94097.77
2019-03-12T17:45:51.169Z,94102.26
2019-03-12T17:48:19.791Z,94110.34
2019-03-12T17:50:48.420Z,94110.73
2019-03-12T17:53:17.076Z,94111.58
2019-03-12T17:55:48.667Z,94114.01
2019-03-12T17:58:17.302Z,94112.39
2019-03-12T18:00:46.039Z,94111.38
2019-03-12T18:03:14.657Z,94108.61
2019-03-12T18:05:43.279Z,94106.01
2019-03-12T18:08:11.950Z,94108.44
2019-03-12T18:10:40.570Z,94109.08
2019-03-12T18:13:09.222Z,94102.21
2019-03-12T18:15:38.000Z,94109.47
2019-03-12T18:18:06.638Z,94107.08
2019-03-12T18:20:35.263Z,94115.71
2019-03-12T18:23:03.925Z,94127.20
2019-03-12T18:25:37.649Z,94126.69
2019-03-12T18:28:07.897Z,94127.02
2019-03-12T18:30:37.784Z,94136.05
2019-03-12T18:33:06.394Z,94143.33
2019-03-12T18:35:35.027Z,94148.61
2019-03-12T18:38:03.777Z,94138.02
2019-03-12T18:40:32.405Z,94147.77
2019-03-12T18:43:01.127Z,94146.09
2019-03-12T18:45:31.471Z,94137.52
2019-03-12T18:48:00.167Z,94143.33
2019-03-12T18:50:28.860Z,94152.28
2019-03-12T18:52:57.807Z,94156.94
2019-03-12T18:55:38.203Z,94153.80
2019-03-12T18:58:07.186Z,94158.78
2019-03-12T19:00:36.575Z,94160.77
2019-03-12T19:03:05.275Z,94164.75
2019-03-12T19:05:34.001Z,94164.45
2019-03-12T19:08:02.691Z,94166.23
2019-03-12T19:10:33.075Z,94166.73
2019-03-12T19:13:01.833Z,94174.41
2019-03-12T19:15:30.710Z,94182.10
2019-03-12T19:17:59.409Z,94183.08
2019-03-12T19:20:28.246Z,94192.78
2019-03-12T19:22:56.949Z,94193.36
2019-03-12T19:25:31.542Z,94199.38
2019-03-12T19:28:00.652Z,94202.17
2019-03-12T19:30:29.469Z,94204.54
2019-03-12T19:33:05.447Z,94210.31
2019-03-12T19:35:34.574Z,94212.70
2019-03-12T19:38:03.680Z,94217.80
2019-03-12T19:40:46.476Z,94223.47
2019-03-12T19:43:16.647Z,94228.69
2019-03-12T19:45:49.505Z,94233.09
2019-03-12T19:48:18.197Z,94240.20
2019-03-12T19:50:46.886Z,94239.22
2019-03-12T19:53:15.724Z,94237.61
2019-03-12T19:55:59.264Z,94237.73
2019-03-12T19:58:28.692Z,94239.55
2019-03-12T20:01:00.977Z,94243.76
2019-03-12T20:03:29.675Z,94248.69
2019-03-12T20:05:58.403Z,94244.57
2019-03-12T20:08:27.109Z,94246.26
2019-03-12T20:11:31.655Z,94259.66
2019-03-12T20:14:37.252Z,94259.33
2019-03-12T20:17:14.910Z,94254.80
2019-03-12T20:20:03.180Z,94246.87
2019-03-12T20:22:58.588Z,94255.19
2019-03-12T20:25:49.409Z,94254.20
2019-03-12T20:28:37.571Z,94253.37
2019-03-12T20:31:21.057Z,94254.83
2019-03-12T20:34:27.420Z,94249.17
2019-03-12T20:37:18.192Z,94250.84
2019-03-12T20:40:06.306Z,94253.97
2019-03-12T20:43:09.573Z,94249.48
2019-03-12T20:45:53.176Z,94242.20
2019-03-12T20:48:42.747Z,94246.30
2019-03-12T20:51:42.939Z,94246.05
2019-03-12T20:54:36.599Z,94248.51
2019-03-12T20:57:24.606Z,94245.85
2019-03-12T21:00:02.338Z,94241.18
2019-03-12T21:02:56.627Z,94240.16
2019-03-12T21:05:46.190Z,94245.66
2019-03-12T21:08:34.090Z,94247.94
2019-03-12T21:11:38.797Z,94251.58
2019-03-12T21:14:29.810Z,94255.41
2019-03-12T21:17:01.414Z,94260.81
2019-03-12T21:19:58.203Z,94259.73
2019-03-12T21:22:41.959Z,94245.45
2019-03-12T21:25:19.217Z,94242.48
2019-03-12T21:28:08.332Z,94252.05
2019-03-12T21:30:37.057Z,94243.55
2019-03-12T21:33:14.712Z,94244.09
2019-03-12T21:35:36.117Z,94244.84
2019-03-12T21:38:04.895Z,94230.66
2019-03-12T21:40:33.532Z,94230.96
2019-03-12T21:43:02.237Z,94226.00
2019-03-12T21:45:31.018Z,94229.72
2019-03-12T21:47:59.714Z,94228.06
2019-03-12T21:50:28.339Z,94229.13
2019-03-12T21:52:57.006Z,94226.94
2019-03-12T21:55:25.623Z,94226.32
2019-03-12T21:57:54.251Z,94223.97
2019-03-12T22:00:22.894Z,94223.63
2019-03-12T22:02:51.514Z,94226.11
2019-03-12T22:05:20.145Z,94223.41
2019-03-12T22:07:48.802Z,94229.68
2019-03-12T22:10:17.442Z,94223.27
2019-03-12T22:12:46.060Z,94223.67
2019-03-12T22:15:14.909Z,94224.63
2019-03-12T22:17:43.613Z,94220.78
2019-03-12T22:20:15.415Z,94216.20
2019-03-12T22:22:45.805Z,94211.93
2019-03-12T22:25:14.502Z,94208.07
2019-03-12T22:27:43.128Z,94213.83
2019-03-12T22:30:17.842Z,94214.30
2019-03-12T22:32:46.475Z,94216.83
2019-03-12T22:35:15.105Z,94213.45
2019-03-12T22:37:43.774Z,94216.66
2019-03-12T22:40:15.615Z,94213.45
2019-03-12T22:42:44.241Z,94210.77
2019-03-12T22:45:13.116Z,94211.90
2019-03-12T22:47:41.744Z,94217.61
2019-03-12T22:50:16.994Z,94209.98
2019-03-12T22:52:45.657Z,94207.77
2019-03-12T22:55:14.694Z,94202.84
2019-03-12T22:57:43.320Z,94201.72
2019-03-12T23:00:18.258Z,94203.47
2019-03-12T23:02:46.950Z,94204.39
2019-03-12T23:05:15.770Z,94202.51
2019-03-12T23:07:44.611Z,94195.67
2019-03-12T23:10:14.820Z,94200.36
2019-03-12T23:12:43.851Z,94211.19
2019-03-12T23:15:17.570Z,94203.73
2019-03-12T23:17:46.186Z,94200.70
2019-03-12T23:20:17.718Z,94197.53
2019-03-12T23:22:46.479Z,94204.86
2019-03-12T23:25:15.209Z,94199.94
2019-03-12T23:27:43.903Z,94191.63
2019-03-12T23:30:17.885Z,94196.31
2019-03-12T23:32:46.638Z,94190.30
2019-03-12T23:35:15.461Z,94186.30
2019-03-12T23:37:44.123Z,94188.03
2019-03-12T23:40:16.867Z,94196.38
2019-03-12T23:42:45.590Z,94194.58
2019-03-12T23:45:15.851Z,94190.12
2019-03-12T23:47:44.876Z,94184.89
2019-03-12T23:50:15.776Z,94190.45
2019-03-12T23:52:44.434Z,94194.04
2019-03-12T23:55:14.964Z,94196.25
2019-03-12T23:57:43.880Z,94195.47
